Pine, Idaho
Current Conditions -  °F | °C
As of 12:58 PM on Friday 24 Oct 2014 (Local Time) from KMUO Reporting Station
Clear Clear  
Wind Chill: 62°   Ceiling: Unl
Heat Index: 62°   Visibility: 10mi
Dew Point: 48°   Wind: 7mph
Humidity: 59%   Direction: 90°E
Pressure: 30.07"   Gusts: NA
Location:  43.2609°N, 115.781°W
Report Text: KMUO 241858Z AUTO 09006KT 10SM CLR 17/09 A3007 RMK AO2 SLP173 T01690089
Loading
Personal Weather Stations






























Interactive Weather Map
Tropical Storm Tracking
New forecast layout! Learn more

10-Day Weather Forecast

Advertisements
Track Severe Weather on mobile